sensor_id;sensor_type;location;lat;lon;timestamp;P1;durP1;ratioP1;P2;durP2;ratioP2
47617;SDS011;33336;36.728;-4.414;2023-07-13T00:00:28;3.47;;;1.80;;
47617;SDS011;33336;36.728;-4.414;2023-07-13T00:10:38;6.93;;;1.95;;
47617;SDS011;33336;36.728;-4.414;2023-07-13T00:15:43;4.05;;;1.70;;
47617;SDS011;33336;36.728;-4.414;2023-07-13T00:20:48;3.80;;;1.70;;
47617;SDS011;33336;36.728;-4.414;2023-07-13T00:25:51;2.60;;;2.10;;
47617;SDS011;33336;36.728;-4.414;2023-07-13T00:30:55;5.05;;;1.25;;
47617;SDS011;33336;36.728;-4.414;2023-07-13T00:35:58;8.23;;;2.22;;
47617;SDS011;33336;36.728;-4.414;2023-07-13T00:41:01;4.25;;;1.70;;
47617;SDS011;33336;36.728;-4.414;2023-07-13T00:46:14;4.70;;;1.88;;
47617;SDS011;33336;36.728;-4.414;2023-07-13T00:51:21;5.15;;;1.77;;
47617;SDS011;33336;36.728;-4.414;2023-07-13T00:56:27;6.47;;;2.38;;
47617;SDS011;33336;36.728;-4.414;2023-07-13T01:01:32;4.55;;;2.50;;
47617;SDS011;33336;36.728;-4.414;2023-07-13T01:06:37;5.93;;;2.55;;
47617;SDS011;33336;36.728;-4.414;2023-07-13T01:11:42;7.20;;;2.45;;
47617;SDS011;33336;36.728;-4.414;2023-07-13T01:16:47;2.75;;;2.10;;
47617;SDS011;33336;36.728;-4.414;2023-07-13T01:21:53;6.10;;;2.45;;
47617;SDS011;33336;36.728;-4.414;2023-07-13T01:26:56;3.70;;;2.17;;
47617;SDS011;33336;36.728;-4.414;2023-07-13T01:31:59;7.40;;;2.53;;
47617;SDS011;33336;36.728;-4.414;2023-07-13T01:37:03;10.40;;;2.42;;
47617;SDS011;33336;36.728;-4.414;2023-07-13T01:42:08;10.85;;;2.85;;
47617;SDS011;33336;36.728;-4.414;2023-07-13T01:47:11;3.65;;;2.33;;
47617;SDS011;33336;36.728;-4.414;2023-07-13T01:52:16;8.30;;;2.28;;
47617;SDS011;33336;36.728;-4.414;2023-07-13T01:57:19;7.00;;;2.40;;
47617;SDS011;33336;36.728;-4.414;2023-07-13T02:02:22;4.72;;;2.70;;
47617;SDS011;33336;36.728;-4.414;2023-07-13T02:07:26;5.18;;;2.30;;
47617;SDS011;33336;36.728;-4.414;2023-07-13T02:12:30;6.30;;;2.55;;
47617;SDS011;33336;36.728;-4.414;2023-07-13T02:17:33;7.28;;;2.53;;
47617;SDS011;33336;36.728;-4.414;2023-07-13T02:22:38;8.05;;;3.17;;
47617;SDS011;33336;36.728;-4.414;2023-07-13T02:27:41;4.28;;;2.17;;
47617;SDS011;33336;36.728;-4.414;2023-07-13T02:32:45;7.50;;;2.60;;
47617;SDS011;33336;36.728;-4.414;2023-07-13T02:37:49;5.70;;;2.42;;
47617;SDS011;33336;36.728;-4.414;2023-07-13T02:42:53;6.25;;;2.30;;
47617;SDS011;33336;36.728;-4.414;2023-07-13T02:47:55;5.97;;;3.15;;
47617;SDS011;33336;36.728;-4.414;2023-07-13T02:53:03;7.03;;;2.72;;
47617;SDS011;33336;36.728;-4.414;2023-07-13T02:58:07;3.63;;;2.35;;
47617;SDS011;33336;36.728;-4.414;2023-07-13T03:03:10;5.25;;;2.25;;
47617;SDS011;33336;36.728;-4.414;2023-07-13T03:08:15;3.85;;;2.65;;
47617;SDS011;33336;36.728;-4.414;2023-07-13T03:13:19;4.30;;;2.45;;
47617;SDS011;33336;36.728;-4.414;2023-07-13T03:18:22;4.82;;;2.30;;
47617;SDS011;33336;36.728;-4.414;2023-07-13T03:23:28;3.92;;;2.67;;
47617;SDS011;33336;36.728;-4.414;2023-07-13T03:28:31;6.70;;;2.88;;
47617;SDS011;33336;36.728;-4.414;2023-07-13T03:33:35;5.43;;;2.88;;
47617;SDS011;33336;36.728;-4.414;2023-07-13T03:38:39;6.72;;;2.50;;
47617;SDS011;33336;36.728;-4.414;2023-07-13T03:43:43;11.23;;;3.80;;
47617;SDS011;33336;36.728;-4.414;2023-07-13T03:48:46;7.22;;;3.17;;
47617;SDS011;33336;36.728;-4.414;2023-07-13T03:53:51;6.97;;;3.00;;
47617;SDS011;33336;36.728;-4.414;2023-07-13T03:58:54;4.22;;;2.97;;
47617;SDS011;33336;36.728;-4.414;2023-07-13T04:03:58;5.53;;;2.85;;
47617;SDS011;33336;36.728;-4.414;2023-07-13T04:09:03;4.47;;;2.53;;
47617;SDS011;33336;36.728;-4.414;2023-07-13T04:14:07;5.47;;;2.87;;
47617;SDS011;33336;36.728;-4.414;2023-07-13T04:19:10;8.63;;;3.63;;
47617;SDS011;33336;36.728;-4.414;2023-07-13T04:24:14;6.80;;;3.20;;
47617;SDS011;33336;36.728;-4.414;2023-07-13T04:29:17;5.43;;;3.05;;
47617;SDS011;33336;36.728;-4.414;2023-07-13T04:34:20;5.30;;;3.00;;
47617;SDS011;33336;36.728;-4.414;2023-07-13T04:39:24;9.15;;;3.20;;
47617;SDS011;33336;36.728;-4.414;2023-07-13T04:44:28;6.68;;;3.22;;
47617;SDS011;33336;36.728;-4.414;2023-07-13T04:49:30;3.42;;;2.30;;
47617;SDS011;33336;36.728;-4.414;2023-07-13T04:54:35;4.53;;;2.38;;
47617;SDS011;33336;36.728;-4.414;2023-07-13T04:59:38;4.38;;;3.20;;
47617;SDS011;33336;36.728;-4.414;2023-07-13T05:04:42;7.13;;;2.97;;
47617;SDS011;33336;36.728;-4.414;2023-07-13T05:09:46;5.20;;;2.85;;
47617;SDS011;33336;36.728;-4.414;2023-07-13T05:14:49;4.45;;;2.92;;
47617;SDS011;33336;36.728;-4.414;2023-07-13T05:19:51;6.95;;;2.72;;
47617;SDS011;33336;36.728;-4.414;2023-07-13T05:24:56;7.72;;;3.28;;
47617;SDS011;33336;36.728;-4.414;2023-07-13T05:29:59;10.13;;;3.10;;
47617;SDS011;33336;36.728;-4.414;2023-07-13T05:35:03;7.32;;;2.97;;
47617;SDS011;33336;36.728;-4.414;2023-07-13T05:40:08;8.27;;;2.85;;
47617;SDS011;33336;36.728;-4.414;2023-07-13T05:45:12;8.43;;;3.55;;
47617;SDS011;33336;36.728;-4.414;2023-07-13T05:50:15;7.78;;;3.47;;
47617;SDS011;33336;36.728;-4.414;2023-07-13T05:55:19;13.82;;;4.00;;
47617;SDS011;33336;36.728;-4.414;2023-07-13T06:00:22;14.57;;;3.75;;
47617;SDS011;33336;36.728;-4.414;2023-07-13T06:05:27;15.10;;;4.63;;
47617;SDS011;33336;36.728;-4.414;2023-07-13T06:10:33;13.88;;;3.72;;
47617;SDS011;33336;36.728;-4.414;2023-07-13T06:15:37;14.63;;;4.00;;
47617;SDS011;33336;36.728;-4.414;2023-07-13T06:20:39;12.80;;;4.22;;
47617;SDS011;33336;36.728;-4.414;2023-07-13T06:25:44;11.98;;;5.40;;
47617;SDS011;33336;36.728;-4.414;2023-07-13T06:30:47;17.13;;;5.30;;
47617;SDS011;33336;36.728;-4.414;2023-07-13T06:35:51;13.57;;;5.45;;
47617;SDS011;33336;36.728;-4.414;2023-07-13T06:40:57;20.33;;;6.93;;
47617;SDS011;33336;36.728;-4.414;2023-07-13T06:46:00;18.27;;;6.55;;
47617;SDS011;33336;36.728;-4.414;2023-07-13T06:51:03;19.92;;;7.25;;
47617;SDS011;33336;36.728;-4.414;2023-07-13T06:56:07;20.73;;;7.82;;
47617;SDS011;33336;36.728;-4.414;2023-07-13T07:01:10;25.25;;;7.53;;
47617;SDS011;33336;36.728;-4.414;2023-07-13T07:06:16;20.70;;;8.27;;
47617;SDS011;33336;36.728;-4.414;2023-07-13T07:11:23;25.45;;;8.48;;
47617;SDS011;33336;36.728;-4.414;2023-07-13T07:16:27;22.70;;;8.77;;
47617;SDS011;33336;36.728;-4.414;2023-07-13T07:21:29;27.35;;;9.38;;
47617;SDS011;33336;36.728;-4.414;2023-07-13T07:26:35;27.40;;;9.82;;
47617;SDS011;33336;36.728;-4.414;2023-07-13T07:31:38;26.37;;;9.40;;
47617;SDS011;33336;36.728;-4.414;2023-07-13T07:36:41;15.55;;;8.05;;
47617;SDS011;33336;36.728;-4.414;2023-07-13T07:41:45;29.45;;;9.13;;
47617;SDS011;33336;36.728;-4.414;2023-07-13T07:46:49;27.30;;;9.13;;
47617;SDS011;33336;36.728;-4.414;2023-07-13T07:51:51;27.85;;;8.57;;
47617;SDS011;33336;36.728;-4.414;2023-07-13T07:56:58;20.60;;;9.60;;
47617;SDS011;33336;36.728;-4.414;2023-07-13T08:02:01;27.90;;;9.57;;
47617;SDS011;33336;36.728;-4.414;2023-07-13T08:07:05;26.25;;;9.95;;
47617;SDS011;33336;36.728;-4.414;2023-07-13T08:12:09;25.38;;;12.93;;
47617;SDS011;33336;36.728;-4.414;2023-07-13T08:17:14;30.13;;;13.73;;
47617;SDS011;33336;36.728;-4.414;2023-07-13T08:22:16;30.38;;;14.98;;
47617;SDS011;33336;36.728;-4.414;2023-07-13T08:27:22;33.78;;;13.45;;
47617;SDS011;33336;36.728;-4.414;2023-07-13T08:32:26;25.45;;;12.90;;
47617;SDS011;33336;36.728;-4.414;2023-07-13T08:37:30;29.35;;;13.52;;
47617;SDS011;33336;36.728;-4.414;2023-07-13T08:42:36;27.63;;;12.80;;
47617;SDS011;33336;36.728;-4.414;2023-07-13T08:47:43;32.83;;;13.05;;
47617;SDS011;33336;36.728;-4.414;2023-07-13T08:52:50;32.53;;;14.07;;
47617;SDS011;33336;36.728;-4.414;2023-07-13T08:57:56;29.95;;;13.43;;
47617;SDS011;33336;36.728;-4.414;2023-07-13T09:03:04;33.47;;;15.45;;
47617;SDS011;33336;36.728;-4.414;2023-07-13T09:08:17;32.15;;;14.35;;
47617;SDS011;33336;36.728;-4.414;2023-07-13T09:13:35;39.55;;;14.85;;
47617;SDS011;33336;36.728;-4.414;2023-07-13T09:18:45;36.08;;;14.52;;
47617;SDS011;33336;36.728;-4.414;2023-07-13T09:23:52;29.58;;;14.02;;
47617;SDS011;33336;36.728;-4.414;2023-07-13T09:29:06;31.87;;;13.67;;
47617;SDS011;33336;36.728;-4.414;2023-07-13T09:34:17;37.33;;;15.60;;
47617;SDS011;33336;36.728;-4.414;2023-07-13T09:39:21;36.15;;;15.82;;
47617;SDS011;33336;36.728;-4.414;2023-07-13T09:44:30;31.30;;;13.85;;
47617;SDS011;33336;36.728;-4.414;2023-07-13T09:49:36;33.53;;;15.43;;
47617;SDS011;33336;36.728;-4.414;2023-07-13T09:54:39;32.88;;;14.52;;
47617;SDS011;33336;36.728;-4.414;2023-07-13T09:59:49;34.60;;;15.10;;
47617;SDS011;33336;36.728;-4.414;2023-07-13T10:04:57;34.20;;;14.80;;
47617;SDS011;33336;36.728;-4.414;2023-07-13T10:10:01;40.70;;;15.60;;
47617;SDS011;33336;36.728;-4.414;2023-07-13T10:15:07;40.15;;;16.20;;
47617;SDS011;33336;36.728;-4.414;2023-07-13T10:20:18;37.40;;;14.98;;
47617;SDS011;33336;36.728;-4.414;2023-07-13T10:25:25;39.33;;;16.02;;
47617;SDS011;33336;36.728;-4.414;2023-07-13T10:30:35;34.40;;;15.75;;
47617;SDS011;33336;36.728;-4.414;2023-07-13T10:35:42;35.20;;;15.20;;
47617;SDS011;33336;36.728;-4.414;2023-07-13T10:40:48;32.45;;;14.38;;
47617;SDS011;33336;36.728;-4.414;2023-07-13T10:45:59;33.00;;;14.90;;
47617;SDS011;33336;36.728;-4.414;2023-07-13T10:51:05;34.95;;;14.45;;
47617;SDS011;33336;36.728;-4.414;2023-07-13T10:56:19;34.50;;;15.40;;
47617;SDS011;33336;36.728;-4.414;2023-07-13T11:01:40;31.45;;;15.38;;
47617;SDS011;33336;36.728;-4.414;2023-07-13T11:06:52;29.13;;;16.00;;
47617;SDS011;33336;36.728;-4.414;2023-07-13T11:12:01;39.42;;;16.08;;
47617;SDS011;33336;36.728;-4.414;2023-07-13T11:22:41;36.97;;;16.05;;
47617;SDS011;33336;36.728;-4.414;2023-07-13T11:27:50;39.47;;;15.85;;
47617;SDS011;33336;36.728;-4.414;2023-07-13T11:33:13;38.67;;;16.15;;
47617;SDS011;33336;36.728;-4.414;2023-07-13T11:38:18;37.20;;;15.75;;
47617;SDS011;33336;36.728;-4.414;2023-07-13T11:43:23;34.17;;;15.50;;
47617;SDS011;33336;36.728;-4.414;2023-07-13T11:48:28;40.33;;;17.25;;
47617;SDS011;33336;36.728;-4.414;2023-07-13T11:53:35;43.90;;;18.58;;
47617;SDS011;33336;36.728;-4.414;2023-07-13T11:58:42;39.70;;;18.42;;
47617;SDS011;33336;36.728;-4.414;2023-07-13T12:03:47;34.60;;;17.50;;
47617;SDS011;33336;36.728;-4.414;2023-07-13T12:13:55;41.38;;;18.60;;
47617;SDS011;33336;36.728;-4.414;2023-07-13T12:18:59;30.55;;;17.75;;
47617;SDS011;33336;36.728;-4.414;2023-07-13T12:24:04;36.90;;;17.48;;
47617;SDS011;33336;36.728;-4.414;2023-07-13T12:29:15;35.13;;;14.10;;
47617;SDS011;33336;36.728;-4.414;2023-07-13T12:34:22;31.38;;;15.13;;
47617;SDS011;33336;36.728;-4.414;2023-07-13T12:39:28;34.78;;;14.43;;
47617;SDS011;33336;36.728;-4.414;2023-07-13T12:44:39;26.38;;;12.43;;
47617;SDS011;33336;36.728;-4.414;2023-07-13T12:49:47;29.27;;;12.40;;
47617;SDS011;33336;36.728;-4.414;2023-07-13T12:54:53;36.92;;;13.38;;
47617;SDS011;33336;36.728;-4.414;2023-07-13T12:59:58;33.42;;;12.43;;
47617;SDS011;33336;36.728;-4.414;2023-07-13T13:05:07;32.83;;;12.77;;
47617;SDS011;33336;36.728;-4.414;2023-07-13T13:10:15;38.83;;;14.10;;
47617;SDS011;33336;36.728;-4.414;2023-07-13T13:15:20;33.60;;;12.50;;
47617;SDS011;33336;36.728;-4.414;2023-07-13T13:20:25;34.17;;;11.73;;
47617;SDS011;33336;36.728;-4.414;2023-07-13T13:25:29;28.67;;;11.85;;
47617;SDS011;33336;36.728;-4.414;2023-07-13T13:30:31;37.10;;;11.38;;
47617;SDS011;33336;36.728;-4.414;2023-07-13T13:35:37;31.42;;;10.63;;
47617;SDS011;33336;36.728;-4.414;2023-07-13T13:40:41;28.52;;;10.68;;
47617;SDS011;33336;36.728;-4.414;2023-07-13T13:45:45;30.52;;;10.27;;
47617;SDS011;33336;36.728;-4.414;2023-07-13T13:50:49;33.25;;;10.88;;
47617;SDS011;33336;36.728;-4.414;2023-07-13T14:10:57;29.98;;;10.02;;
47617;SDS011;33336;36.728;-4.414;2023-07-13T14:16:01;25.80;;;9.20;;
47617;SDS011;33336;36.728;-4.414;2023-07-13T14:21:04;30.25;;;10.30;;
47617;SDS011;33336;36.728;-4.414;2023-07-13T14:26:16;39.10;;;10.00;;
47617;SDS011;33336;36.728;-4.414;2023-07-13T14:31:21;26.73;;;8.70;;
47617;SDS011;33336;36.728;-4.414;2023-07-13T14:36:26;24.45;;;8.75;;
47617;SDS011;33336;36.728;-4.414;2023-07-13T14:41:32;30.55;;;9.23;;
47617;SDS011;33336;36.728;-4.414;2023-07-13T14:46:35;24.23;;;8.95;;
47617;SDS011;33336;36.728;-4.414;2023-07-13T14:51:39;23.65;;;9.25;;
47617;SDS011;33336;36.728;-4.414;2023-07-13T14:56:43;27.20;;;10.25;;
47617;SDS011;33336;36.728;-4.414;2023-07-13T15:01:47;29.33;;;9.13;;
47617;SDS011;33336;36.728;-4.414;2023-07-13T15:06:52;34.63;;;9.18;;
47617;SDS011;33336;36.728;-4.414;2023-07-13T15:11:59;25.80;;;8.60;;
47617;SDS011;33336;36.728;-4.414;2023-07-13T15:17:02;23.08;;;8.93;;
47617;SDS011;33336;36.728;-4.414;2023-07-13T15:22:07;31.48;;;9.18;;
47617;SDS011;33336;36.728;-4.414;2023-07-13T15:27:13;24.95;;;8.55;;
47617;SDS011;33336;36.728;-4.414;2023-07-13T15:32:17;30.55;;;8.93;;
47617;SDS011;33336;36.728;-4.414;2023-07-13T15:37:20;30.38;;;9.07;;
47617;SDS011;33336;36.728;-4.414;2023-07-13T15:42:25;33.10;;;9.25;;
47617;SDS011;33336;36.728;-4.414;2023-07-13T15:47:28;27.02;;;9.38;;
47617;SDS011;33336;36.728;-4.414;2023-07-13T15:52:31;26.55;;;9.30;;
47617;SDS011;33336;36.728;-4.414;2023-07-13T15:57:36;23.85;;;7.97;;
47617;SDS011;33336;36.728;-4.414;2023-07-13T16:02:39;27.15;;;8.52;;
47617;SDS011;33336;36.728;-4.414;2023-07-13T16:07:42;22.38;;;6.80;;
47617;SDS011;33336;36.728;-4.414;2023-07-13T16:12:48;19.57;;;8.03;;
47617;SDS011;33336;36.728;-4.414;2023-07-13T16:17:51;32.80;;;8.57;;
47617;SDS011;33336;36.728;-4.414;2023-07-13T16:22:55;25.53;;;7.13;;
47617;SDS011;33336;36.728;-4.414;2023-07-13T16:28:00;20.80;;;6.43;;
47617;SDS011;33336;36.728;-4.414;2023-07-13T16:33:04;23.65;;;7.75;;
47617;SDS011;33336;36.728;-4.414;2023-07-13T16:38:11;23.37;;;7.10;;
47617;SDS011;33336;36.728;-4.414;2023-07-13T16:43:19;22.77;;;7.40;;
47617;SDS011;33336;36.728;-4.414;2023-07-13T16:48:22;29.08;;;7.45;;
47617;SDS011;33336;36.728;-4.414;2023-07-13T16:53:30;29.33;;;7.57;;
47617;SDS011;33336;36.728;-4.414;2023-07-13T16:58:34;23.98;;;7.70;;
47617;SDS011;33336;36.728;-4.414;2023-07-13T17:03:38;26.55;;;8.20;;
47617;SDS011;33336;36.728;-4.414;2023-07-13T17:08:41;23.20;;;6.75;;
47617;SDS011;33336;36.728;-4.414;2023-07-13T17:13:47;23.05;;;7.38;;
47617;SDS011;33336;36.728;-4.414;2023-07-13T17:18:50;22.63;;;7.00;;
47617;SDS011;33336;36.728;-4.414;2023-07-13T17:23:53;25.58;;;8.23;;
47617;SDS011;33336;36.728;-4.414;2023-07-13T17:28:58;26.50;;;8.00;;
47617;SDS011;33336;36.728;-4.414;2023-07-13T17:34:02;22.92;;;7.60;;
47617;SDS011;33336;36.728;-4.414;2023-07-13T17:39:11;29.38;;;7.72;;
47617;SDS011;33336;36.728;-4.414;2023-07-13T17:44:18;20.95;;;7.80;;
47617;SDS011;33336;36.728;-4.414;2023-07-13T17:49:22;29.73;;;8.20;;
47617;SDS011;33336;36.728;-4.414;2023-07-13T17:54:31;23.77;;;7.85;;
47617;SDS011;33336;36.728;-4.414;2023-07-13T17:59:36;23.63;;;7.90;;
47617;SDS011;33336;36.728;-4.414;2023-07-13T18:04:38;22.85;;;7.00;;
47617;SDS011;33336;36.728;-4.414;2023-07-13T18:09:41;32.13;;;10.10;;
47617;SDS011;33336;36.728;-4.414;2023-07-13T18:14:53;20.88;;;7.43;;
47617;SDS011;33336;36.728;-4.414;2023-07-13T18:19:56;24.65;;;8.20;;
47617;SDS011;33336;36.728;-4.414;2023-07-13T18:25:00;23.40;;;7.38;;
47617;SDS011;33336;36.728;-4.414;2023-07-13T18:30:10;23.83;;;7.47;;
47617;SDS011;33336;36.728;-4.414;2023-07-13T18:35:15;30.52;;;7.82;;
47617;SDS011;33336;36.728;-4.414;2023-07-13T18:40:22;28.60;;;8.90;;
47617;SDS011;33336;36.728;-4.414;2023-07-13T18:45:27;25.23;;;7.47;;
47617;SDS011;33336;36.728;-4.414;2023-07-13T18:50:31;31.83;;;8.43;;
47617;SDS011;33336;36.728;-4.414;2023-07-13T18:55:36;28.13;;;7.88;;
47617;SDS011;33336;36.728;-4.414;2023-07-13T19:00:41;30.60;;;9.60;;
47617;SDS011;33336;36.728;-4.414;2023-07-13T19:05:44;22.27;;;8.23;;
47617;SDS011;33336;36.728;-4.414;2023-07-13T19:10:49;22.17;;;7.75;;
47617;SDS011;33336;36.728;-4.414;2023-07-13T19:15:55;31.45;;;9.30;;
47617;SDS011;33336;36.728;-4.414;2023-07-13T19:20:58;27.13;;;8.13;;
47617;SDS011;33336;36.728;-4.414;2023-07-13T19:26:18;36.92;;;9.85;;
47617;SDS011;33336;36.728;-4.414;2023-07-13T19:31:26;29.83;;;9.20;;
47617;SDS011;33336;36.728;-4.414;2023-07-13T19:36:33;27.58;;;7.72;;
47617;SDS011;33336;36.728;-4.414;2023-07-13T19:41:38;24.10;;;8.85;;
47617;SDS011;33336;36.728;-4.414;2023-07-13T19:46:42;29.88;;;9.55;;
47617;SDS011;33336;36.728;-4.414;2023-07-13T19:51:45;30.38;;;9.70;;
47617;SDS011;33336;36.728;-4.414;2023-07-13T19:56:48;26.42;;;9.52;;
47617;SDS011;33336;36.728;-4.414;2023-07-13T20:01:53;26.13;;;9.20;;
47617;SDS011;33336;36.728;-4.414;2023-07-13T20:06:56;31.10;;;9.18;;
47617;SDS011;33336;36.728;-4.414;2023-07-13T20:11:59;31.25;;;9.77;;
47617;SDS011;33336;36.728;-4.414;2023-07-13T20:17:09;32.53;;;8.80;;
47617;SDS011;33336;36.728;-4.414;2023-07-13T20:22:26;32.20;;;10.23;;
47617;SDS011;33336;36.728;-4.414;2023-07-13T20:27:30;29.42;;;10.30;;
47617;SDS011;33336;36.728;-4.414;2023-07-13T20:32:35;30.98;;;10.63;;
47617;SDS011;33336;36.728;-4.414;2023-07-13T20:37:39;25.48;;;10.02;;
47617;SDS011;33336;36.728;-4.414;2023-07-13T20:42:43;33.55;;;8.70;;
47617;SDS011;33336;36.728;-4.414;2023-07-13T20:47:49;33.33;;;10.15;;
47617;SDS011;33336;36.728;-4.414;2023-07-13T20:52:56;24.38;;;9.20;;
47617;SDS011;33336;36.728;-4.414;2023-07-13T20:57:59;22.90;;;9.05;;
47617;SDS011;33336;36.728;-4.414;2023-07-13T21:03:06;26.00;;;8.63;;
47617;SDS011;33336;36.728;-4.414;2023-07-13T21:08:25;33.25;;;9.93;;
47617;SDS011;33336;36.728;-4.414;2023-07-13T21:13:28;25.52;;;9.00;;
47617;SDS011;33336;36.728;-4.414;2023-07-13T21:18:32;27.13;;;10.35;;
47617;SDS011;33336;36.728;-4.414;2023-07-13T21:23:35;27.83;;;9.25;;
47617;SDS011;33336;36.728;-4.414;2023-07-13T21:28:39;29.63;;;9.27;;
47617;SDS011;33336;36.728;-4.414;2023-07-13T21:33:45;26.13;;;8.40;;
47617;SDS011;33336;36.728;-4.414;2023-07-13T21:38:48;27.13;;;10.93;;
47617;SDS011;33336;36.728;-4.414;2023-07-13T21:43:58;32.25;;;11.55;;
47617;SDS011;33336;36.728;-4.414;2023-07-13T21:49:02;31.90;;;11.00;;
47617;SDS011;33336;36.728;-4.414;2023-07-13T21:54:08;28.50;;;11.27;;
47617;SDS011;33336;36.728;-4.414;2023-07-13T21:59:17;28.75;;;10.75;;
47617;SDS011;33336;36.728;-4.414;2023-07-13T22:04:26;24.80;;;9.77;;
47617;SDS011;33336;36.728;-4.414;2023-07-13T22:09:31;31.52;;;11.25;;
47617;SDS011;33336;36.728;-4.414;2023-07-13T22:14:34;30.63;;;11.25;;
47617;SDS011;33336;36.728;-4.414;2023-07-13T22:19:38;36.30;;;11.25;;
47617;SDS011;33336;36.728;-4.414;2023-07-13T22:24:41;22.35;;;10.23;;
47617;SDS011;33336;36.728;-4.414;2023-07-13T22:29:44;34.60;;;10.68;;
47617;SDS011;33336;36.728;-4.414;2023-07-13T22:34:49;29.67;;;11.13;;
47617;SDS011;33336;36.728;-4.414;2023-07-13T22:39:53;35.38;;;11.98;;
47617;SDS011;33336;36.728;-4.414;2023-07-13T22:44:56;34.58;;;11.23;;
47617;SDS011;33336;36.728;-4.414;2023-07-13T22:50:01;32.50;;;12.07;;
47617;SDS011;33336;36.728;-4.414;2023-07-13T22:55:09;35.45;;;12.23;;
47617;SDS011;33336;36.728;-4.414;2023-07-13T23:00:16;30.65;;;11.90;;
47617;SDS011;33336;36.728;-4.414;2023-07-13T23:05:22;25.98;;;11.25;;
47617;SDS011;33336;36.728;-4.414;2023-07-13T23:10:25;30.70;;;11.57;;
47617;SDS011;33336;36.728;-4.414;2023-07-13T23:15:29;35.97;;;11.63;;
47617;SDS011;33336;36.728;-4.414;2023-07-13T23:20:35;27.60;;;11.48;;
47617;SDS011;33336;36.728;-4.414;2023-07-13T23:25:39;32.47;;;11.23;;
47617;SDS011;33336;36.728;-4.414;2023-07-13T23:30:44;26.85;;;11.25;;
47617;SDS011;33336;36.728;-4.414;2023-07-13T23:35:50;33.77;;;13.17;;
47617;SDS011;33336;36.728;-4.414;2023-07-13T23:40:55;35.22;;;11.80;;
47617;SDS011;33336;36.728;-4.414;2023-07-13T23:45:59;27.75;;;11.48;;
47617;SDS011;33336;36.728;-4.414;2023-07-13T23:51:04;36.25;;;12.40;;
47617;SDS011;33336;36.728;-4.414;2023-07-13T23:56:11;35.90;;;11.95;;
